Time;durP1;ratioP1;P1;durP2;ratioP2;P2;SDS_P1;SDS_P2;PMS_P1;PMS_P2;Temp;Humidity;BMP_temperature;BMP_pressure;BME280_temperature;BME280_humidity;BME280_pressure;Samples;Min_cycle;Max_cycle;Signal;HPM_P1;HPM_P2
2023/12/09 00:01:28;;;;;;;9.45;5.10;;;6.20;99.90;;;5.43;100.00;97053.91;5021748;28;20371;-39
2023/12/09 00:03:53;;;;;;;8.05;4.68;;;6.10;99.90;;;5.42;100.00;97048.72;5017737;28;20033;-38
2023/12/09 00:06:19;;;;;;;8.23;5.25;;;6.10;99.90;;;5.39;100.00;97046.19;5022806;28;20362;-38
2023/12/09 00:08:45;;;;;;;9.05;5.53;;;6.10;99.90;;;5.36;100.00;97044.47;5016190;28;20156;-38
2023/12/09 00:11:11;;;;;;;12.27;5.95;;;6.10;99.90;;;5.31;100.00;97035.88;5022111;28;20084;-38
2023/12/09 00:13:38;;;;;;;9.95;5.45;;;6.10;99.90;;;5.31;100.00;97041.09;5023168;28;20032;-38
2023/12/09 00:16:04;;;;;;;7.75;5.43;;;6.10;99.90;;;5.30;100.00;97057.72;5021198;28;20635;-39
2023/12/09 00:18:30;;;;;;;9.88;6.30;;;6.10;99.90;;;5.29;100.00;97058.59;5017711;28;20033;-38
2023/12/09 00:20:56;;;;;;;8.02;5.90;;;6.00;99.90;;;5.22;100.00;97052.63;5020112;28;20033;-38
2023/12/09 00:23:22;;;;;;;8.88;6.18;;;6.00;99.90;;;5.23;100.00;97046.50;5021180;28;20086;-38
2023/12/09 00:25:47;;;;;;;9.25;5.72;;;6.00;99.90;;;5.16;100.00;97040.53;5008743;28;20397;-39
2023/12/09 00:28:13;;;;;;;9.77;6.07;;;6.00;99.90;;;5.21;100.00;97045.69;5013247;28;20096;-40
2023/12/09 00:30:39;;;;;;;9.85;6.38;;;5.90;99.90;;;5.19;100.00;97047.47;5022685;28;20045;-39
2023/12/09 00:33:05;;;;;;;10.40;6.35;;;5.90;99.90;;;5.18;100.00;97052.72;5020539;28;20063;-40
2023/12/09 00:35:31;;;;;;;10.25;6.68;;;5.90;99.90;;;5.11;100.00;97045.00;5022757;28;20119;-39
2023/12/09 00:37:56;;;;;;;11.65;6.93;;;5.90;99.90;;;5.15;100.00;97054.53;5017136;28;20553;-38
2023/12/09 00:40:22;;;;;;;9.73;5.80;;;5.90;99.90;;;5.09;100.00;97041.56;5021736;28;20029;-40
2023/12/09 00:42:48;;;;;;;8.80;5.72;;;5.80;99.90;;;5.05;100.00;97042.53;5016301;28;20052;-38
2023/12/09 00:45:14;;;;;;;9.88;6.60;;;5.80;99.90;;;4.98;100.00;97033.94;5015266;28;20489;-38
2023/12/09 00:47:40;;;;;;;10.68;6.25;;;5.80;99.90;;;4.88;100.00;97023.72;5014814;28;20045;-38
2023/12/09 00:50:07;;;;;;;10.38;5.90;;;5.70;99.90;;;5.02;100.00;97050.41;5020689;28;20033;-39
2023/12/09 00:52:32;;;;;;;10.25;6.63;;;5.70;99.90;;;5.01;100.00;97047.84;5022485;28;20087;-38
2023/12/09 00:55:00;;;;;;;10.50;6.22;;;5.70;99.90;;;4.98;100.00;97039.16;5016687;28;20029;-38
2023/12/09 00:57:25;;;;;;;11.25;6.88;;;5.70;99.90;;;4.92;100.00;97041.06;5017483;28;20025;-38
2023/12/09 00:59:51;;;;;;;10.75;6.75;;;5.70;99.90;;;4.96;100.00;97043.56;5017840;28;20086;-39
2023/12/09 01:02:17;;;;;;;9.70;6.53;;;5.70;99.90;;;4.96;100.00;97059.25;5019626;28;20025;-38
2023/12/09 01:04:43;;;;;;;10.38;6.90;;;5.70;99.90;;;4.98;100.00;97051.38;5015755;28;20052;-38
2023/12/09 01:07:09;;;;;;;9.63;5.82;;;5.70;99.90;;;5.00;100.00;97059.19;5018802;28;20034;-38
2023/12/09 01:09:35;;;;;;;8.02;6.03;;;5.70;99.90;;;5.01;100.00;97061.78;5015930;28;20034;-38
2023/12/09 01:12:02;;;;;;;9.32;5.95;;;5.70;99.90;;;5.04;100.00;97066.06;5018331;28;20785;-38
2023/12/09 01:14:27;;;;;;;10.75;6.50;;;5.70;99.90;;;4.96;100.00;97061.88;5019212;28;20044;-38
2023/12/09 01:16:53;;;;;;;10.30;6.40;;;5.80;99.90;;;5.04;100.00;97064.31;5015995;28;20041;-38
2023/12/09 01:19:19;;;;;;;8.38;5.78;;;5.80;99.90;;;4.94;100.00;97050.59;5009364;28;20610;-38
2023/12/09 01:21:44;;;;;;;9.60;5.45;;;5.80;99.90;;;5.09;100.00;97080.78;5015781;28;20064;-40
2023/12/09 01:24:10;;;;;;;10.82;6.30;;;5.80;99.90;;;5.09;100.00;97083.38;5017689;28;20567;-38
2023/12/09 01:26:36;;;;;;;8.57;6.00;;;5.80;99.90;;;5.10;100.00;97086.88;5016430;28;20025;-39
2023/12/09 01:29:03;;;;;;;10.43;5.75;;;5.80;99.90;;;5.05;100.00;97070.44;5014318;28;21207;-38
2023/12/09 01:31:31;;;;;;;9.52;5.55;;;5.80;99.90;;;5.01;100.00;97068.75;5018714;28;20030;-39
2023/12/09 01:33:57;;;;;;;10.45;5.38;;;5.80;99.90;;;5.09;100.00;97088.63;5016467;28;20037;-38
2023/12/09 01:36:23;;;;;;;9.57;5.78;;;5.80;99.90;;;5.09;100.00;97086.00;5017924;28;20037;-36
2023/12/09 01:38:49;;;;;;;8.10;5.45;;;5.80;99.90;;;5.09;100.00;97088.63;5017556;28;20115;-37
2023/12/09 01:41:15;;;;;;;7.25;4.97;;;5.80;99.90;;;5.09;100.00;97090.38;5020520;28;20091;-37
2023/12/09 01:43:42;;;;;;;10.40;5.45;;;5.80;99.90;;;5.10;100.00;97090.34;5016440;28;20363;-37
2023/12/09 01:46:10;;;;;;;7.45;5.10;;;5.80;99.90;;;5.04;100.00;97089.59;5019414;28;20474;-40
2023/12/09 01:48:40;;;;;;;8.98;5.25;;;5.80;99.90;;;5.08;100.00;97113.03;5004494;28;20147;-38
2023/12/09 01:51:07;;;;;;;8.00;5.18;;;5.80;99.90;;;5.01;100.00;97105.34;5011462;28;20037;-38
2023/12/09 01:53:35;;;;;;;8.38;5.15;;;5.80;99.90;;;4.97;100.00;97086.25;5016764;28;20069;-38
2023/12/09 01:56:05;;;;;;;10.70;4.88;;;5.80;99.90;;;5.12;100.00;97113.84;5018311;28;20044;-38
2023/12/09 01:58:34;;;;;;;11.30;5.30;;;5.90;99.90;;;5.10;100.00;97107.78;5023578;28;20103;-38
2023/12/09 02:01:00;;;;;;;9.05;4.60;;;5.80;99.90;;;5.14;100.00;97117.28;5012694;28;20354;-40
2023/12/09 02:03:26;;;;;;;7.53;4.38;;;5.90;99.90;;;5.14;100.00;97114.66;5020709;28;20033;-38
2023/12/09 02:05:52;;;;;;;7.55;4.03;;;5.90;99.90;;;5.13;100.00;97113.81;5016813;28;20029;-38
2023/12/09 02:08:17;;;;;;;9.02;4.53;;;5.90;99.90;;;5.09;100.00;97117.38;5011137;28;20018;-37
2023/12/09 02:11:10;;;;;;;6.63;4.30;;;5.90;99.90;;;4.90;100.00;97088.13;5002630;28;20042;-38
2023/12/09 02:14:08;;;;;;;6.57;3.92;;;5.90;99.90;;;5.14;100.00;97125.97;4985889;28;20150;-38
2023/12/09 02:16:53;;;;;;;7.53;3.92;;;5.90;99.90;;;5.13;100.00;97115.56;5000670;28;20033;-38
2023/12/09 02:19:20;;;;;;;9.27;4.55;;;5.90;99.90;;;5.13;100.00;97113.81;5022369;28;20610;-37
2023/12/09 02:22:05;;;;;;;7.57;3.88;;;5.90;99.90;;;5.14;100.00;97112.91;5002243;28;20095;-38
2023/12/09 02:24:31;;;;;;;8.52;3.58;;;5.90;99.90;;;5.13;100.00;97110.31;5016136;28;20030;-38
2023/12/09 02:27:14;;;;;;;6.25;3.97;;;5.90;99.90;;;5.15;100.00;97108.53;5018638;28;20022;-38
2023/12/09 02:30:03;;;;;;;8.32;4.25;;;5.90;99.90;;;5.14;100.00;97099.00;5018971;28;20501;-37
2023/12/09 02:32:31;;;;;;;9.80;4.15;;;5.90;99.90;;;5.12;100.00;97095.56;4985036;28;20118;-38
2023/12/09 02:34:58;;;;;;;9.68;3.95;;;5.90;99.90;;;5.17;100.00;97096.31;5013691;28;20414;-38
2023/12/09 02:37:27;;;;;;;6.10;3.00;;;5.90;99.90;;;5.22;100.00;97094.44;4999161;28;20029;-39
2023/12/09 02:39:53;;;;;;;9.10;2.85;;;6.00;99.90;;;5.27;100.00;97086.53;5014709;28;23754;-39
2023/12/09 02:42:19;;;;;;;4.25;3.03;;;6.00;99.90;;;5.25;100.00;97086.56;5005732;28;20620;-38
2023/12/09 02:44:45;;;;;;;9.07;3.83;;;6.00;99.90;;;5.28;100.00;97081.25;5013715;28;20059;-39
2023/12/09 02:47:13;;;;;;;6.88;3.47;;;6.10;99.90;;;5.28;100.00;97090.88;4999019;28;20071;-37
2023/12/09 02:49:39;;;;;;;6.30;3.58;;;6.10;99.90;;;5.33;100.00;97083.81;5018011;28;20041;-38
2023/12/09 02:52:04;;;;;;;6.65;3.83;;;6.10;99.90;;;5.18;100.00;97060.56;5020177;28;20337;-38
2023/12/09 02:54:30;;;;;;;5.65;3.55;;;6.10;99.90;;;5.30;100.00;97086.47;5017485;28;20033;-40
2023/12/09 02:56:56;;;;;;;5.35;3.35;;;6.10;99.90;;;5.29;100.00;97079.50;5002517;28;20040;-40
2023/12/09 02:59:22;;;;;;;7.82;4.65;;;6.10;99.90;;;5.27;100.00;97076.06;5022628;28;20482;-40
2023/12/09 03:01:47;;;;;;;10.73;4.82;;;6.00;99.90;;;5.19;100.00;97057.94;5016507;28;20443;-40
2023/12/09 03:04:13;;;;;;;10.63;4.28;;;6.00;99.90;;;5.16;100.00;97051.00;5023862;28;20128;-39
2023/12/09 03:06:39;;;;;;;9.82;4.60;;;6.00;99.90;;;5.24;100.00;97055.19;5019073;28;20067;-38
2023/12/09 03:09:05;;;;;;;6.90;3.95;;;6.00;99.90;;;5.23;100.00;97054.34;5009892;28;20152;-38
2023/12/09 03:11:30;;;;;;;7.07;3.67;;;6.00;99.90;;;5.19;100.00;97050.09;5014149;28;20418;-38
2023/12/09 03:13:56;;;;;;;9.13;4.13;;;5.90;99.90;;;5.15;100.00;97049.28;5004711;28;20041;-38
2023/12/09 03:16:22;;;;;;;8.93;4.00;;;5.90;99.90;;;5.07;100.00;97035.50;5016744;28;20068;-38
2023/12/09 03:18:47;;;;;;;6.88;3.60;;;5.90;99.90;;;5.07;100.00;97040.75;5012440;28;20032;-39
2023/12/09 03:21:17;;;;;;;7.10;3.45;;;5.90;99.90;;;5.10;100.00;97039.84;5017081;28;20543;-38
2023/12/09 03:23:43;;;;;;;6.30;3.47;;;5.90;99.90;;;5.12;100.00;97043.28;5018969;28;20041;-38
2023/12/09 03:26:20;;;;;;;5.50;3.20;;;5.90;99.90;;;5.13;100.00;97042.34;5023483;28;20036;-39
2023/12/09 03:28:46;;;;;;;5.65;3.28;;;5.90;99.90;;;5.07;100.00;97017.22;5018910;28;20681;-39
2023/12/09 03:31:14;;;;;;;5.25;3.13;;;5.90;99.90;;;5.08;100.00;97029.41;5000749;28;20034;-39
2023/12/09 03:33:40;;;;;;;5.43;3.13;;;5.80;99.90;;;4.99;100.00;97032.22;5020876;28;20049;-39
2023/12/09 03:36:09;;;;;;;6.22;2.80;;;5.70;99.90;;;4.90;100.00;97033.25;5023083;28;20421;-41
2023/12/09 03:38:35;;;;;;;5.32;3.08;;;5.60;99.90;;;4.80;100.00;97036.94;5003959;28;20523;-39
2023/12/09 03:41:04;;;;;;;7.68;2.70;;;5.60;99.90;;;4.75;100.00;97026.56;5004295;28;20541;-39
2023/12/09 03:43:30;;;;;;;4.03;2.28;;;5.50;99.90;;;4.61;100.00;97020.75;5018649;28;20496;-39
2023/12/09 03:45:56;;;;;;;6.40;2.92;;;5.40;99.90;;;4.54;100.00;97030.47;5016930;28;20030;-40
2023/12/09 03:48:21;;;;;;;5.10;2.40;;;5.30;99.90;;;4.35;100.00;97022.13;5020848;28;20402;-39
2023/12/09 03:50:47;;;;;;;4.20;2.28;;;5.10;99.90;;;4.25;100.00;97019.69;5018596;28;20029;-39
2023/12/09 03:53:13;;;;;;;4.65;2.40;;;5.00;99.90;;;4.14;100.00;97025.94;5017788;28;20076;-38
2023/12/09 03:55:39;;;;;;;5.43;2.50;;;4.90;99.90;;;4.03;100.00;97024.44;5017724;28;20037;-38
2023/12/09 03:58:06;;;;;;;4.25;2.42;;;4.80;99.90;;;3.85;100.00;97023.84;5019268;28;20435;-39
2023/12/09 04:00:32;;;;;;;4.75;2.70;;;4.70;99.90;;;3.78;100.00;97032.66;5022723;28;20367;-38
2023/12/09 04:02:58;;;;;;;4.57;2.80;;;4.60;99.90;;;3.67;100.00;97030.22;5019208;28;20763;-38
2023/12/09 04:05:23;;;;;;;4.68;2.38;;;4.50;99.90;;;3.46;100.00;97007.94;5019335;28;20068;-38
2023/12/09 04:07:49;;;;;;;5.43;2.30;;;4.40;99.90;;;3.51;100.00;97026.97;5017437;28;20029;-39
2023/12/09 04:10:15;;;;;;;5.80;2.30;;;4.30;99.90;;;3.42;100.00;97022.75;5020357;28;20021;-38
2023/12/09 04:12:40;;;;;;;4.75;2.65;;;4.20;99.90;;;3.23;100.00;96996.13;5021083;28;20068;-39
2023/12/09 04:15:08;;;;;;;4.13;2.60;;;4.20;99.90;;;3.34;100.00;97018.53;5019387;28;20471;-38
2023/12/09 04:17:34;;;;;;;6.95;2.45;;;4.10;99.90;;;3.27;100.00;97016.91;5019690;28;20033;-38
2023/12/09 04:19:59;;;;;;;4.18;2.30;;;4.10;99.90;;;3.23;100.00;97021.28;5020503;28;20040;-38
2023/12/09 04:22:25;;;;;;;8.77;2.50;;;4.10;99.90;;;3.26;100.00;97031.69;5022324;28;20838;-38
2023/12/09 04:24:51;;;;;;;6.30;2.67;;;4.10;99.90;;;3.30;100.00;97041.16;5018606;28;20033;-38
2023/12/09 04:27:17;;;;;;;6.15;2.40;;;4.10;99.90;;;3.39;100.00;97042.78;5019520;28;20099;-38
2023/12/09 04:29:42;;;;;;;6.15;2.60;;;4.20;99.90;;;3.44;100.00;97035.78;5019458;28;20450;-38
2023/12/09 04:32:08;;;;;;;5.28;2.33;;;4.20;99.90;;;3.49;100.00;97033.13;5018407;28;20033;-37
2023/12/09 04:34:35;;;;;;;7.30;2.65;;;4.30;99.90;;;3.63;100.00;97042.44;5018471;28;20072;-37
2023/12/09 04:37:01;;;;;;;4.88;2.35;;;4.40;99.90;;;3.71;100.00;97038.84;5019507;28;20516;-39
2023/12/09 04:39:27;;;;;;;5.30;2.50;;;4.50;99.90;;;3.84;100.00;97048.22;5022421;28;20239;-37
2023/12/09 04:41:53;;;;;;;5.05;2.30;;;4.60;99.90;;;3.92;100.00;97050.72;5016634;28;20462;-37
2023/12/09 04:44:19;;;;;;;4.70;2.58;;;4.60;99.90;;;3.95;100.00;97048.91;5016786;28;20048;-37
2023/12/09 04:46:45;;;;;;;4.72;2.35;;;4.70;99.90;;;4.00;100.00;97036.66;5018004;28;20044;-37
2023/12/09 04:49:10;;;;;;;5.38;2.35;;;4.80;99.90;;;4.07;100.00;97036.53;5019342;28;20029;-38
2023/12/09 04:51:36;;;;;;;7.03;2.70;;;4.80;99.90;;;4.09;100.00;97039.97;5019689;28;20116;-38
2023/12/09 04:54:02;;;;;;;6.05;2.58;;;4.90;99.90;;;4.17;100.00;97049.41;5016389;28;20071;-39
2023/12/09 04:56:29;;;;;;;8.73;2.60;;;4.90;99.90;;;4.25;100.00;97040.56;5016613;28;20038;-37
2023/12/09 04:58:55;;;;;;;8.13;2.58;;;5.00;99.90;;;4.28;100.00;97053.59;5018127;28;20045;-37
2023/12/09 05:01:21;;;;;;;7.32;2.90;;;5.10;99.90;;;4.32;100.00;97037.81;5016321;28;20341;-38
2023/12/09 05:03:47;;;;;;;7.57;2.58;;;5.10;99.90;;;4.42;100.00;97042.91;5018863;28;20421;-37
2023/12/09 05:06:12;;;;;;;5.43;2.88;;;5.20;99.90;;;4.48;100.00;97042.78;5021490;28;20055;-37
2023/12/09 05:08:42;;;;;;;7.60;2.78;;;5.20;99.90;;;4.51;100.00;97038.34;5014474;28;20121;-38
2023/12/09 05:11:08;;;;;;;6.38;2.60;;;5.30;99.90;;;4.52;100.00;97029.66;5014391;28;20037;-38
2023/12/09 05:13:34;;;;;;;5.95;2.33;;;5.30;99.90;;;4.63;100.00;97037.28;5021903;28;20044;-37
2023/12/09 05:16:00;;;;;;;4.57;2.17;;;5.40;99.90;;;4.70;100.00;97023.22;5020478;28;20545;-37
2023/12/09 05:18:26;;;;;;;6.45;2.42;;;5.40;99.90;;;4.80;100.00;97029.09;5020660;28;20254;-37
2023/12/09 05:20:52;;;;;;;5.97;2.47;;;5.50;99.90;;;4.86;100.00;97017.66;5020610;28;20040;-38
2023/12/09 05:23:17;;;;;;;5.55;2.20;;;5.60;99.90;;;4.93;100.00;97024.47;5023678;28;20282;-39
2023/12/09 05:25:44;;;;;;;6.43;2.47;;;5.70;99.90;;;4.97;100.00;97021.78;5011532;28;20091;-37
2023/12/09 05:28:10;;;;;;;6.80;2.50;;;5.70;99.90;;;5.00;100.00;97014.78;5022637;28;20046;-37
2023/12/09 05:30:36;;;;;;;5.07;1.80;;;5.80;99.90;;;5.01;100.00;97014.75;5001985;28;20037;-37
2023/12/09 05:33:03;;;;;;;4.47;2.83;;;5.80;99.90;;;4.88;100.00;96987.13;5019264;28;20036;-37
2023/12/09 05:35:29;;;;;;;4.35;2.13;;;5.80;99.90;;;5.03;100.00;97005.13;5021547;28;20037;-37
2023/12/09 05:37:55;;;;;;;4.93;1.92;;;5.80;99.90;;;5.05;100.00;97010.31;5023267;28;20538;-37
2023/12/09 05:40:20;;;;;;;5.20;1.90;;;5.80;99.90;;;5.06;100.00;96998.94;5000839;28;20357;-37
2023/12/09 05:42:46;;;;;;;5.43;2.03;;;5.80;99.90;;;5.06;100.00;97004.16;5020100;28;20036;-37
2023/12/09 05:45:12;;;;;;;4.15;2.10;;;5.80;99.90;;;4.95;100.00;96986.09;5016803;28;20042;-37
2023/12/09 05:47:38;;;;;;;4.47;1.80;;;5.80;99.90;;;5.01;100.00;96990.34;5017659;28;20039;-37
2023/12/09 05:50:04;;;;;;;4.32;2.10;;;5.80;99.90;;;5.05;100.00;96992.88;5020517;28;20041;-38
2023/12/09 05:52:30;;;;;;;7.90;2.22;;;5.80;99.90;;;4.97;100.00;96984.31;5021172;28;20044;-37
2023/12/09 05:54:55;;;;;;;6.50;1.75;;;5.80;99.90;;;5.00;100.00;96999.94;5015131;28;20033;-37
2023/12/09 05:57:21;;;;;;;4.32;1.90;;;5.80;99.90;;;4.96;100.00;96993.06;5004329;28;20041;-37
2023/12/09 05:59:47;;;;;;;3.85;1.92;;;5.70;99.90;;;4.95;100.00;96986.09;5018400;28;20037;-38
2023/12/09 06:02:12;;;;;;;4.65;2.17;;;5.70;99.90;;;4.98;100.00;96997.34;5022969;28;20028;-38
2023/12/09 06:04:38;;;;;;;5.97;2.60;;;5.70;99.90;;;4.93;100.00;96993.97;5022032;28;20045;-38
2023/12/09 06:07:04;;;;;;;3.83;1.95;;;5.70;99.90;;;4.98;100.00;96994.75;5019327;28;20235;-38
2023/12/09 06:09:29;;;;;;;5.25;2.20;;;5.80;99.90;;;5.00;100.00;96999.09;5017884;28;20029;-37
2023/12/09 06:11:55;;;;;;;4.95;2.17;;;5.80;99.90;;;4.97;100.00;96990.44;5022261;28;20068;-37
2023/12/09 06:14:21;;;;;;;4.47;2.20;;;5.80;99.90;;;4.95;100.00;96989.59;5015248;28;20262;-39
2023/12/09 06:16:47;;;;;;;2.83;1.85;;;5.70;99.90;;;4.94;100.00;96994.84;5016527;28;20037;-38
2023/12/09 06:19:13;;;;;;;5.50;2.30;;;5.70;99.90;;;4.91;100.00;96998.38;5020355;28;20421;-39
2023/12/09 06:21:39;;;;;;;4.97;2.25;;;5.70;99.90;;;4.90;100.00;96996.69;5020750;28;20489;-38
2023/12/09 06:24:05;;;;;;;3.78;2.10;;;5.70;99.90;;;4.88;100.00;96997.59;5013691;28;20029;-37
2023/12/09 06:26:30;;;;;;;4.25;2.10;;;5.60;99.90;;;4.86;100.00;96989.78;5010153;28;20388;-38
2023/12/09 06:28:56;;;;;;;4.80;1.90;;;5.70;99.90;;;4.93;100.00;96998.34;5017277;28;20504;-37
2023/12/09 06:31:22;;;;;;;5.95;2.10;;;5.70;99.90;;;4.95;100.00;96994.84;5016226;28;20037;-39
2023/12/09 06:33:48;;;;;;;7.22;2.50;;;5.70;99.90;;;4.96;100.00;96996.53;5024932;28;20035;-38
2023/12/09 06:36:13;;;;;;;3.45;1.83;;;5.80;99.90;;;4.96;100.00;96980.84;5025311;28;20032;-39
2023/12/09 06:38:40;;;;;;;5.85;2.10;;;5.70;99.90;;;4.96;100.00;96980.00;5018213;28;20573;-37
2023/12/09 06:41:06;;;;;;;4.40;2.08;;;5.70;99.90;;;5.00;100.00;96980.78;5023375;28;20357;-37
2023/12/09 06:43:32;;;;;;;4.07;1.75;;;5.70;99.90;;;5.01;100.00;96987.72;5026060;28;20033;-37
2023/12/09 06:46:01;;;;;;;4.63;1.90;;;5.70;99.90;;;4.84;100.00;96961.97;5022036;28;20078;-38
2023/12/09 06:48:26;;;;;;;5.25;1.85;;;5.70;99.90;;;4.89;100.00;96965.34;5022763;28;20037;-38
2023/12/09 06:50:52;;;;;;;4.43;1.70;;;5.70;99.90;;;4.95;100.00;96980.88;5024624;28;20509;-37
2023/12/09 06:53:18;;;;;;;4.15;1.65;;;5.70;99.90;;;4.94;100.00;96982.66;5019139;28;20121;-37
2023/12/09 06:55:43;;;;;;;4.65;1.60;;;5.70;99.90;;;4.95;100.00;96978.28;5018170;28;20392;-38
2023/12/09 06:58:09;;;;;;;4.38;1.83;;;5.70;99.90;;;4.96;100.00;96982.63;5027650;28;20544;-37
2023/12/09 07:00:37;;;;;;;4.97;1.70;;;5.70;99.90;;;4.92;100.00;96965.28;5020412;28;20041;-37
2023/12/09 07:03:03;;;;;;;2.67;1.88;;;5.70;99.90;;;5.00;100.00;96973.81;5018749;28;21063;-37
2023/12/09 07:05:28;;;;;;;5.15;1.88;;;5.70;99.90;;;4.98;100.00;96986.06;5021474;28;20037;-38
2023/12/09 07:07:54;;;;;;;6.63;2.00;;;5.70;99.90;;;4.99;100.00;96985.16;5024303;28;20964;-37
2023/12/09 07:10:20;;;;;;;6.40;2.45;;;5.70;99.90;;;5.01;100.00;96980.78;5026174;28;20033;-38
2023/12/09 07:12:45;;;;;;;5.20;2.03;;;5.80;99.90;;;4.99;100.00;96977.34;5023577;28;20055;-39
2023/12/09 07:15:15;;;;;;;3.88;1.70;;;5.80;99.90;;;5.00;100.00;96979.03;5020848;28;20397;-37
2023/12/09 07:17:41;;;;;;;3.60;1.88;;;5.80;99.90;;;5.02;100.00;96971.16;5024005;28;20029;-37
2023/12/09 07:20:07;;;;;;;4.63;2.35;;;5.80;99.90;;;5.02;100.00;96973.78;5024937;28;20490;-39
2023/12/09 07:22:33;;;;;;;5.03;2.05;;;5.80;99.90;;;5.04;100.00;96979.81;5001256;28;20033;-37
2023/12/09 07:24:58;;;;;;;5.45;2.10;;;5.80;99.90;;;5.02;100.00;96974.63;5020078;28;20037;-37
2023/12/09 07:27:24;;;;;;;4.18;2.15;;;5.80;99.90;;;5.09;100.00;96984.06;5023392;28;20048;-37
2023/12/09 07:29:50;;;;;;;3.92;2.17;;;5.80;99.90;;;5.10;100.00;96980.56;5022755;28;20053;-37
2023/12/09 07:32:15;;;;;;;3.67;2.05;;;5.80;99.90;;;5.15;100.00;96978.72;5012677;28;20048;-39
2023/12/09 07:34:41;;;;;;;4.85;1.83;;;5.90;99.90;;;5.16;100.00;96985.66;5021847;28;20072;-37
2023/12/09 07:37:09;;;;;;;4.30;1.80;;;5.90;99.90;;;5.19;100.00;96978.63;5018445;28;20063;-38
2023/12/09 07:39:35;;;;;;;5.15;1.88;;;5.90;99.90;;;5.19;100.00;96978.63;5018355;28;20043;-37
2023/12/09 07:42:01;;;;;;;5.30;1.90;;;5.90;99.90;;;5.21;100.00;96972.47;5018874;28;20389;-37
2023/12/09 07:44:26;;;;;;;5.88;2.03;;;5.90;99.90;;;5.21;100.00;96976.88;5015161;28;20402;-37
2023/12/09 07:46:52;;;;;;;3.10;1.80;;;6.00;99.90;;;5.23;100.00;96970.69;5016080;28;20025;-37
2023/12/09 07:49:18;;;;;;;5.20;1.90;;;6.00;99.90;;;5.27;100.00;96964.50;5019789;28;20028;-37
2023/12/09 07:51:43;;;;;;;3.67;1.65;;;6.00;99.90;;;5.27;100.00;96955.78;5015720;28;20486;-37
2023/12/09 07:54:09;;;;;;;4.38;1.65;;;6.10;99.90;;;5.36;100.00;96971.25;5016161;28;20041;-38
2023/12/09 07:56:35;;;;;;;3.85;1.77;;;6.10;99.90;;;5.35;100.00;96972.19;5011941;28;20035;-39
2023/12/09 07:59:01;;;;;;;5.05;1.80;;;6.10;99.90;;;5.37;100.00;96975.63;5010537;28;20058;-37
2023/12/09 08:01:27;;;;;;;5.38;1.77;;;6.10;99.90;;;5.41;100.00;96982.47;5019983;28;20033;-37
2023/12/09 08:03:53;;;;;;;3.88;1.60;;;6.10;99.90;;;5.37;100.00;96970.38;5021578;28;20091;-37
2023/12/09 08:06:19;;;;;;;3.63;1.48;;;6.20;99.90;;;5.44;100.00;96973.72;5012153;28;20790;-38
2023/12/09 08:08:44;;;;;;;4.50;1.70;;;6.20;99.90;;;5.38;100.00;96961.63;5019233;28;20021;-38
2023/12/09 08:11:10;;;;;;;7.15;1.95;;;6.20;99.90;;;5.37;100.00;96959.94;5020612;28;21152;-38
2023/12/09 08:13:36;;;;;;;3.70;1.50;;;6.10;99.90;;;5.37;100.00;96957.31;5009597;28;20030;-38
2023/12/09 08:16:01;;;;;;;3.90;1.58;;;6.10;99.90;;;5.32;100.00;96940.88;5020826;28;20548;-38
2023/12/09 08:18:27;;;;;;;3.55;1.65;;;6.10;99.90;;;5.38;100.00;96959.00;5019719;28;20029;-39
2023/12/09 08:20:53;;;;;;;5.28;1.88;;;6.10;99.90;;;5.38;100.00;96959.00;5017879;28;20598;-38
2023/12/09 08:23:18;;;;;;;3.55;1.60;;;6.10;99.90;;;5.34;100.00;96954.75;5005667;28;20033;-40
2023/12/09 08:25:44;;;;;;;3.58;1.73;;;6.10;99.90;;;5.23;100.00;96947.16;5014559;28;20135;-38
2023/12/09 08:28:10;;;;;;;3.25;1.75;;;6.00;99.90;;;5.18;100.00;96951.63;5018332;28;20121;-38
2023/12/09 08:30:36;;;;;;;5.82;1.75;;;5.90;99.90;;;5.08;100.00;96944.88;5019217;28;20099;-39
2023/12/09 08:33:03;;;;;;;4.88;1.60;;;5.90;99.90;;;4.99;100.00;96945.97;5008264;28;20053;-38
2023/12/09 08:35:30;;;;;;;4.32;1.33;;;5.80;99.90;;;5.01;100.00;96954.63;5016200;28;20396;-39
2023/12/09 08:37:56;;;;;;;4.38;1.35;;;5.70;99.90;;;4.95;100.00;96945.19;5017398;28;20040;-37
2023/12/09 08:40:22;;;;;;;4.30;1.60;;;5.70;99.90;;;4.91;100.00;96934.81;5011432;28;20034;-38
2023/12/09 08:42:47;;;;;;;4.70;1.75;;;5.70;99.90;;;4.99;100.00;96940.75;4999612;28;20500;-39
2023/12/09 08:45:17;;;;;;;3.25;1.52;;;5.80;99.90;;;5.08;100.00;96940.53;5016669;28;20294;-38
2023/12/09 08:47:43;;;;;;;4.25;1.70;;;5.80;99.90;;;5.22;100.00;96948.03;5010806;28;20460;-38
2023/12/09 08:50:09;;;;;;;3.30;1.40;;;5.90;99.90;;;5.41;100.00;96958.94;5017088;28;20107;-38
2023/12/09 08:52:35;;;;;;;5.55;1.73;;;6.10;99.90;;;5.56;100.00;96952.47;5013837;28;20429;-38
2023/12/09 08:55:01;;;;;;;3.92;1.65;;;6.30;99.90;;;5.78;100.00;96960.69;5013558;28;20029;-38
2023/12/09 08:57:27;;;;;;;1.92;1.20;;;6.50;99.90;;;5.92;100.00;96960.31;5020261;28;20025;-38
2023/12/09 08:59:54;;;;;;;3.05;1.58;;;6.60;99.90;;;5.93;100.00;96938.50;5005548;28;20374;-39
2023/12/09 09:02:21;;;;;;;5.30;1.70;;;6.80;99.90;;;6.15;100.00;96946.66;5001381;28;20069;-38
2023/12/09 09:04:46;;;;;;;3.58;1.40;;;6.80;99.90;;;6.29;100.00;96947.16;5013376;28;20147;-38
2023/12/09 09:07:13;;;;;;;3.97;1.55;;;7.00;99.90;;;6.41;100.00;96927.63;4994652;28;20402;-38
2023/12/09 09:09:39;;;;;;;3.20;1.50;;;7.10;99.90;;;6.48;100.00;96926.56;5017143;28;20100;-39
2023/12/09 09:12:07;;;;;;;4.32;1.92;;;7.20;99.90;;;6.60;100.00;96932.34;5012797;28;20038;-38
2023/12/09 09:14:34;;;;;;;3.95;1.52;;;7.30;99.90;;;6.67;100.00;96933.88;5015867;28;20037;-37
2023/12/09 09:17:00;;;;;;;5.72;1.80;;;7.40;99.90;;;6.71;100.00;96932.03;5004612;28;20578;-38
2023/12/09 09:19:25;;;;;;;3.45;1.52;;;7.40;99.90;;;6.71;100.00;96913.69;5012656;28;20037;-37
2023/12/09 09:21:52;;;;;;;4.97;2.00;;;7.40;99.90;;;6.76;100.00;96917.91;5004979;28;20041;-37
2023/12/09 09:24:18;;;;;;;5.10;2.10;;;7.50;99.90;;;6.75;100.00;96917.94;5015976;28;20392;-37
2023/12/09 09:26:44;;;;;;;4.38;2.72;;;7.50;99.90;;;6.76;100.00;96932.78;5015201;28;20029;-37
2023/12/09 09:29:10;;;;;;;3.95;1.60;;;7.50;99.90;;;6.82;100.00;96932.56;5010239;28;20048;-37
2023/12/09 09:31:36;;;;;;;5.82;1.90;;;7.50;99.90;;;6.90;100.00;96925.34;5008257;28;20079;-37
2023/12/09 09:34:02;;;;;;;3.53;1.60;;;7.60;99.90;;;6.94;100.00;96920.88;5010515;28;20059;-37
2023/12/09 09:36:27;;;;;;;6.55;1.60;;;7.60;99.90;;;6.97;100.00;96918.19;5006590;28;20413;-37
2023/12/09 09:38:53;;;;;;;3.55;1.35;;;7.70;99.90;;;7.00;100.00;96911.06;5004571;28;20064;-37
2023/12/09 09:41:29;;;;;;;2.35;1.40;;;7.70;99.90;;;7.06;100.00;96905.63;5016748;28;20068;-38
2023/12/09 09:44:06;;;;;;;3.95;1.50;;;7.80;99.90;;;7.04;100.00;96894.34;5008778;28;20029;-37
2023/12/09 09:46:34;;;;;;;3.97;1.45;;;7.80;99.90;;;7.04;100.00;96865.50;5010749;28;20115;-37
2023/12/09 09:49:05;;;;;;;4.47;1.50;;;7.80;99.90;;;7.15;100.00;96880.03;5016458;28;20034;-37
2023/12/09 09:51:32;;;;;;;4.47;1.60;;;7.90;99.90;;;7.14;100.00;96880.94;5015754;28;20060;-37
2023/12/09 09:54:21;;;;;;;9.02;1.70;;;7.90;99.90;;;7.18;100.00;96882.56;5013631;28;20033;-38
2023/12/09 09:56:50;;;;;;;2.30;1.20;;;7.90;99.90;;;7.16;100.00;96880.00;5001227;28;20068;-37
2023/12/09 09:59:17;;;;;;;6.40;1.95;;;7.90;99.90;;;7.24;100.00;96890.22;5006045;28;20060;-37
2023/12/09 10:01:44;;;;;;;3.05;1.55;;;8.00;99.90;;;7.20;100.00;96871.13;5009204;28;20033;-39
2023/12/09 10:04:11;;;;;;;2.42;1.40;;;8.00;99.90;;;7.28;100.00;96876.09;5002858;28;20077;-38
2023/12/09 10:06:36;;;;;;;3.83;1.42;;;8.00;99.90;;;7.17;100.00;96865.09;4997467;28;20090;-39
2023/12/09 10:09:03;;;;;;;3.17;1.20;;;8.00;99.90;;;7.17;100.00;96875.59;5019393;28;20029;-39
2023/12/09 10:11:29;;;;;;;2.40;1.42;;;7.90;99.90;;;7.13;100.00;96866.97;5014917;28;20418;-40
2023/12/09 10:13:55;;;;;;;1.95;1.13;;;7.90;99.90;;;7.18;100.00;96864.22;5012320;28;20033;-40
2023/12/09 10:16:21;;;;;;;2.78;1.48;;;7.90;99.90;;;7.26;100.00;96865.66;5017016;28;20305;-41
2023/12/09 10:18:47;;;;;;;7.20;1.45;;;7.90;99.90;;;7.32;100.00;96858.50;5010615;28;20493;-41
2023/12/09 10:21:14;;;;;;;2.95;1.45;;;8.00;99.90;;;7.39;100.00;96845.16;5009392;28;20060;-40
2023/12/09 10:23:40;;;;;;;3.30;1.33;;;8.00;99.90;;;7.45;100.00;96828.34;5014298;28;20557;-41